Date,TemperatureHighF,TemperatureAvgF,TemperatureLowF,DewpointHighF,DewpointAvgF,DewpointLowF,HumidityHigh,HumidityAvg,HumidityLow,PressureMaxIn,PressureMinIn,WindSpeedMaxMPH,WindSpeedAvgMPH,GustSpeedMaxMPH,PrecipitationSumIn
2012-1-1,58.6,34.2,24.6,14.0,2.1,-7.2,32,25,17,28.97,28.44,37,15,37,0.00
2012-1-2,54.1,24.8,12.7,11.6,-7.1,-15.3,29,24,18,29.00,28.85,23,7,23,0.00
2012-1-3,53.2,31.8,12.9,10.9,-1.7,-14.1,29,23,18,28.85,28.29,25,7,25,0.00
2012-1-4,59.0,43.9,31.5,14.3,7.0,2.6,30,22,17,28.61,28.38,21,8,21,0.00
2012-1-5,73.0,49.2,26.4,24.1,10.2,4.4,41,22,14,28.41,28.02,13,4,13,0.00
2012-1-6,50.0,43.3,35.1,9.6,6.7,0.1,30,22,19,28.35,27.99,17,7,17,0.00
2012-1-7,46.4,32.0,22.6,7.1,1.1,-5.3,37,27,19,28.50,28.35,9,2,9,0.00
2012-1-8,54.3,32.5,22.8,13.6,5.6,-3.9,44,33,18,28.59,28.50,10,1,10,0.00
2012-1-9,57.6,37.8,25.2,13.1,7.2,-1.0,44,29,17,28.50,28.26,10,5,10,0.00
2012-1-10,66.9,40.6,24.6,17.8,8.0,-2.6,46,28,15,28.26,27.91,8,3,8,0.00
2012-1-11,39.7,29.7,19.9,15.0,4.5,-10.2,53,34,25,28.17,27.82,37,14,37,0.00
2012-1-12,19.9,13.7,9.7,-8.4,-13.5,-17.6,35,28,25,28.20,28.11,28,15,28,0.00
2012-1-13,31.6,18.2,6.8,-1.9,-11.3,-18.7,29,26,21,28.26,28.02,15,6,15,0.00
2012-1-14,46.2,30.9,22.5,7.6,-2.6,-8.2,25,23,20,28.29,27.99,19,5,19,0.00
2012-1-15,60.8,39.1,23.7,15.4,2.3,-7.8,24,21,16,28.26,27.85,23,8,23,0.00
2012-1-16,39.7,32.0,21.4,6.6,0.3,-9.0,31,25,21,28.08,27.85,19,9,19,0.00
2012-1-17,25.0,16.5,5.9,3.8,-9.0,-20.9,50,31,24,28.44,28.02,24,9,24,0.00
2012-1-18,42.1,21.9,6.4,5.7,-7.2,-20.4,41,27,21,28.41,27.91,20,9,20,0.00
2012-1-19,22.8,11.4,5.5,-10.3,-17.5,-21.7,27,25,22,28.29,28.08,17,8,17,0.00
2012-1-20,17.8,11.9,10.4,-12.1,-17.9,-19.2,26,24,24,28.17,27.99,13,8,13,0.00
2012-1-22,48.7,38.1,28.0,21.3,14.9,5.4,66,40,27,27.67,27.49,25,10,25,0.00
2012-1-23,32.5,26.9,13.6,18.5,5.0,-3.0,64,39,31,28.14,27.67,29,9,29,0.00
2012-1-24,42.4,25.2,9.3,13.1,4.9,-5.6,51,42,29,28.32,28.14,13,4,13,0.00
2012-1-25,47.7,35.1,26.4,16.5,11.8,3.4,54,39,24,28.29,28.02,10,2,10,0.00
2012-1-26,48.6,37.2,21.9,13.8,6.6,-0.2,49,29,19,27.99,27.91,27,8,27,0.00
2012-1-27,40.3,31.4,25.2,9.9,8.1,5.3,42,37,26,28.02,27.94,16,2,16,0.00
2012-1-28,47.1,29.3,21.0,7.4,0.3,-4.1,38,29,19,28.29,28.17,28,8,28,0.00
2012-1-29,46.2,32.9,18.9,7.4,-1.1,-11.1,33,23,20,28.26,27.96,15,5,15,0.00
2012-1-30,73.8,52.1,36.0,24.8,10.1,0.8,22,18,13,27.96,27.76,20,8,20,0.00
2012-1-31,61.7,45.3,29.5,18.5,10.9,-0.7,47,26,16,28.08,27.79,22,5,22,0.00
2012-2-1,64.0,40.7,24.6,17.0,7.8,-3.4,44,27,16,28.17,28.08,13,2,13,0.00
2012-2-2,61.3,39.3,22.5,15.6,6.8,-2.8,42,27,16,28.26,28.17,11,3,11,0.00
2012-2-3,46.2,40.8,34.2,25.7,18.1,7.4,65,43,22,28.26,28.17,28,10,28,0.16
2012-2-4,34.0,32.2,29.8,26.5,23.5,20.4,77,70,65,28.35,28.17,23,2,23,0.00
2012-2-5,31.3,25.7,18.7,20.4,13.0,4.6,68,58,43,28.38,28.29,0,0,0,0.00
2012-2-6,43.9,24.9,9.3,17.7,6.7,-5.1,54,46,29,28.29,28.11,10,1,10,0.12
2012-2-7,33.8,29.8,26.1,12.7,9.9,5.6,48,43,38,28.47,28.17,15,8,16,0.00
2012-2-8,36.3,25.9,21.4,5.6,1.4,-2.8,46,35,22,28.44,28.29,13,3,13,0.00
2012-2-9,41.5,30.6,24.4,14.0,9.1,4.7,52,40,28,28.29,27.99,18,5,18,0.20
2012-2-10,29.5,15.9,4.8,8.2,-9.9,-21.8,41,30,25,28.50,27.99,30,12,30,0.00
2012-2-11,22.1,7.1,0.1,-8.3,-21.0,-28.1,27,25,22,28.67,28.50,15,6,15,0.00
2012-2-12,36.1,16.3,-5.1,1.0,-14.4,-32.6,36,24,22,28.50,27.94,18,5,18,0.04
2012-2-13,35.4,29.7,25.0,16.3,10.4,-5.7,57,44,23,27.94,27.61,19,5,19,0.00
2012-2-14,48.7,30.6,14.9,16.6,9.6,-0.8,61,43,21,27.76,27.67,13,2,13,0.12
2012-2-15,46.0,33.5,21.9,27.4,14.6,9.0,64,47,28,27.99,27.70,15,4,15,0.00
2012-2-16,52.2,34.5,23.2,12.0,7.7,2.3,48,33,18,28.11,27.94,13,4,13,0.00
2012-2-17,45.7,35.7,27.1,11.2,6.8,1.7,41,30,20,28.05,27.85,16,6,16,0.00
2012-2-18,50.9,29.5,15.8,10.1,2.9,-4.1,54,34,19,28.08,27.91,8,2,8,0.00
2012-2-19,53.1,32.0,16.0,12.6,6.1,1.0,55,36,18,27.96,17.72,16,5,16,0.00
2012-2-20,41.0,37.2,32.9,31.3,19.4,5.8,71,50,31,17.72,17.72,25,10,25,0.08
2012-2-21,52.0,39.3,32.7,21.6,11.9,2.7,56,34,18,27.76,17.72,25,7,25,0.00
2012-2-23,35.4,33.2,31.5,16.5,14.4,12.2,52,46,41,17.72,17.72,32,15,32,0.00
2012-2-24,42.4,32.0,23.2,18.6,7.7,-2.6,52,36,21,17.72,17.72,26,10,26,0.00
2012-2-25,44.6,29.9,15.3,6.1,0.8,-6.3,43,29,20,17.72,17.72,26,9,26,0.04
2012-2-26,57.6,42.5,27.5,12.9,6.3,-3.0,30,22,17,17.72,17.72,22,9,22,0.00
2012-2-27,48.7,31.2,18.1,8.3,-1.6,-8.5,33,24,19,17.72,17.72,15,7,15,0.00
2012-2-28,52.3,42.5,33.4,42.5,22.5,-0.6,69,48,22,17.72,17.72,26,10,26,0.71
2012-2-29,43.7,34.1,25.2,19.0,7.1,3.0,47,32,24,17.72,17.72,38,15,38,0.00
2012-3-1,59.2,36.8,21.6,20.9,13.3,7.8,60,41,17,17.72,17.72,15,5,15,0.00
2012-3-2,48.6,37.6,31.5,15.9,7.5,-2.0,46,29,19,17.72,17.72,24,10,24,0.00
2012-3-3,43.5,31.8,23.5,5.4,0.6,-5.9,36,26,20,17.72,17.72,25,8,25,0.00
2012-3-4,53.8,35.1,21.2,15.1,6.5,-0.4,47,31,18,17.72,17.72,41,9,41,0.00
2012-3-5,63.5,40.6,19.8,16.5,8.6,2.8,52,30,16,17.72,17.72,24,7,24,0.00
2012-3-6,74.8,60.5,45.3,25.7,16.3,6.4,26,18,14,17.72,17.72,25,11,25,0.00
2012-3-7,60.6,46.8,33.3,27.2,16.5,5.2,46,30,25,17.72,17.72,31,13,31,0.00
2012-3-8,54.5,39.0,23.0,11.9,5.7,1.0,43,26,18,17.72,17.72,24,7,24,0.00
2012-3-9,69.1,46.3,25.0,19.5,7.3,-5.9,33,21,15,17.72,17.72,17,7,17,0.00
2012-3-10,73.0,54.6,39.2,24.2,11.3,2.6,21,18,14,17.72,17.72,27,11,27,0.00
2012-3-11,50.5,47.1,43.0,36.5,20.9,4.7,66,38,19,17.72,17.72,19,6,19,0.08
2012-3-12,74.5,53.5,43.0,43.4,28.8,-9.4,71,45,7,17.72,17.72,14,5,14,0.16
2012-3-13,86.4,61.6,39.4,33.0,25.5,16.4,55,30,13,17.72,17.72,22,6,22,0.00
2012-3-14,90.9,67.2,55.0,43.9,28.4,11.3,56,26,12,17.72,17.72,13,5,13,0.00
2012-3-15,78.3,55.0,39.7,35.8,24.5,9.2,47,32,15,17.72,17.72,8,1,8,0.00
2012-3-16,89.4,65.4,48.9,48.2,34.1,24.7,64,36,13,17.72,17.72,17,4,17,0.00
2012-3-17,64.4,63.4,61.0,44.1,37.7,35.5,53,39,34,17.72,17.72,13,8,13,0.00
2012-3-18,85.6,75.8,65.7,37.0,30.6,24.6,34,20,13,0.00,0.00,29,15,29,0.00
2012-3-19,77.0,63.2,56.8,43.5,36.5,20.1,61,39,15,0.00,0.00,21,9,21,0.08
2012-3-20,56.8,56.8,56.8,36.8,36.8,36.8,47,47,47,0.00,0.00,10,4,10,0.00
2012-3-21,63.0,60.1,59.2,49.4,47.6,40.6,68,63,46,0.00,0.00,22,8,22,0.16
2012-3-22,81.9,60.5,49.6,50.5,34.5,-10.2,70,46,5,0.00,0.00,19,5,19,0.04
2012-3-23,83.8,56.6,45.0,31.8,26.3,17.5,56,36,14,0.00,0.00,10,2,10,0.04
2012-3-24,90.3,64.1,48.2,31.0,23.7,15.5,39,23,12,0.00,0.00,9,2,9,0.04
2012-3-25,88.0,67.8,45.9,34.7,27.5,19.5,48,26,13,0.00,0.00,9,2,9,0.04
2012-3-26,89.6,78.5,62.6,31.9,27.3,21.9,26,16,12,0.00,0.00,28,11,28,0.04
2012-3-27,90.3,70.4,61.7,33.2,25.0,18.5,34,19,12,0.00,0.00,22,8,22,0.04
2012-3-28,89.6,66.3,42.3,31.6,21.4,14.3,39,19,12,0.00,0.00,15,4,15,0.00
2012-3-29,70.3,62.0,54.5,41.8,31.6,15.1,47,32,15,0.00,0.00,19,9,19,0.04
2012-3-30,96.1,64.2,49.3,44.3,33.1,19.6,62,36,11,0.00,0.00,15,5,15,0.04
2012-3-31,98.8,71.0,52.9,34.5,29.4,17.8,42,24,10,0.00,0.00,20,5,20,0.04
2012-4-1,102.4,73.9,54.7,44.5,32.3,21.0,48,25,10,0.00,0.00,27,5,27,0.00
2012-4-2,102.9,74.5,58.3,45.1,32.1,20.1,47,24,9,0.00,0.00,23,8,23,0.00
2012-4-3,77.7,60.4,50.9,32.3,23.4,17.1,37,25,15,0.00,0.00,23,9,23,0.00
2012-4-4,65.1,58.9,54.5,21.9,18.0,14.3,26,20,18,0.00,0.00,17,6,17,0.00
2012-4-5,84.4,59.5,46.6,29.8,19.6,6.5,46,23,13,0.00,0.00,17,6,17,0.08
2012-4-6,80.2,55.3,38.3,28.0,14.9,7.1,34,21,13,0.00,0.00,25,8,25,0.00
2012-4-7,70.0,54.4,38.5,37.4,18.0,2.0,60,26,15,0.00,0.00,27,8,27,0.04
2012-4-8,86.9,54.9,31.6,29.6,14.1,1.2,36,21,13,0.00,0.00,22,5,22,0.00
2012-4-9,71.4,54.8,36.1,20.0,11.4,1.0,22,18,14,0.00,0.00,17,5,17,0.00
2012-4-10,68.2,49.9,33.4,18.2,8.8,-1.0,23,19,15,0.00,0.00,17,5,17,0.00
2012-4-11,81.5,50.0,29.5,27.8,8.8,-3.7,23,19,13,0.00,0.00,12,4,12,0.00
2012-4-12,55.8,47.4,36.3,34.9,17.5,1.3,52,32,18,0.00,0.00,26,9,26,0.16
2012-4-13,83.8,62.9,48.4,41.4,31.2,22.2,68,37,14,0.00,0.00,24,10,24,0.16
2012-4-14,66.2,57.6,42.6,50.2,38.0,22.2,71,50,28,0.00,0.00,50,5,50,1.69
2012-4-15,75.0,61.3,45.3,53.4,34.4,15.8,71,43,13,0.00,0.00,39,13,39,0.83
2012-4-16,63.9,50.7,38.5,26.6,16.3,6.4,48,26,16,0.00,0.00,37,11,37,0.00
2012-4-17,85.6,57.4,36.3,34.4,23.3,16.1,52,31,13,0.00,0.00,26,7,26,0.00
2012-4-18,89.2,68.1,51.1,34.8,25.8,19.2,46,22,13,0.00,0.00,20,4,20,0.04
2012-4-19,70.3,59.1,44.6,36.9,27.8,21.2,58,33,17,0.00,0.00,22,8,22,0.04
2012-4-20,71.6,48.6,39.2,21.8,16.0,6.3,44,29,14,0.00,0.00,25,8,25,0.00
2012-4-21,79.2,57.2,38.5,26.7,17.2,11.3,40,22,14,0.00,0.00,31,8,31,0.00
2012-4-22,70.7,52.5,40.3,20.7,14.3,8.0,39,22,14,0.00,0.00,28,10,28,0.00
2012-4-23,89.2,57.1,34.3,31.7,19.2,10.6,54,27,13,0.00,0.00,13,3,13,0.00
2012-4-24,104.7,66.4,44.2,34.7,25.2,9.8,43,23,9,28.47,0.00,11,2,11,0.00
2012-4-25,95.7,74.7,56.3,35.8,29.0,16.6,39,21,11,28.67,28.38,29,6,29,0.00
2012-4-26,83.7,68.4,56.7,29.5,21.3,12.9,25,17,14,28.91,28.67,12,6,12,0.00
2012-4-27,74.3,56.1,46.9,33.0,19.5,9.8,57,27,13,28.88,28.50,32,13,32,0.35
2012-4-28,77.2,55.2,46.6,35.9,26.9,19.3,64,37,15,28.97,28.59,13,5,13,0.00
2012-4-29,52.5,49.9,46.0,40.1,33.8,25.0,69,54,38,28.97,28.85,13,4,13,0.31
2012-4-30,90.1,61.5,49.6,39.7,31.6,22.8,68,37,12,28.88,28.70,13,4,13,0.00
2012-5-1,96.1,73.3,56.8,42.8,34.8,27.2,52,28,11,28.70,28.44,23,8,23,0.00
2012-5-2,92.5,73.4,61.5,61.5,44.2,31.7,66,40,15,28.61,28.47,17,6,17,0.28
2012-5-3,104.2,75.6,59.9,53.6,42.8,30.3,66,38,9,28.70,28.56,18,5,18,0.35
2012-5-4,104.4,79.2,65.1,57.7,43.8,28.2,62,34,9,28.70,28.61,19,4,19,0.00
2012-5-5,109.4,84.9,70.0,56.8,40.9,28.2,54,26,8,28.70,28.59,22,8,22,0.00
2012-5-6,85.5,68.7,58.6,51.1,38.6,27.0,64,36,13,28.91,28.61,26,10,26,1.42
2012-5-7,75.9,62.7,51.1,32.1,20.9,11.3,34,21,14,29.00,28.88,21,9,21,0.00
2012-5-8,73.2,57.4,46.8,21.2,17.8,11.5,34,22,14,28.94,28.85,23,8,23,0.00
2012-5-9,86.2,60.2,43.7,29.6,21.4,14.5,42,24,13,29.00,28.82,13,4,13,0.00
2012-5-10,97.9,71.5,50.0,34.1,26.3,20.3,34,20,11,28.82,28.61,23,8,23,0.08
2012-5-11,82.9,67.1,53.8,28.8,22.1,11.1,25,18,14,29.12,28.70,24,9,24,0.00
2012-5-12,82.9,62.6,50.7,28.9,18.1,9.7,26,18,13,29.21,29.12,13,5,13,0.00
2012-5-13,98.6,67.9,47.8,34.9,25.1,15.8,39,22,11,29.15,29.03,9,1,9,0.00
2012-5-14,99.9,68.1,45.5,34.8,26.3,15.8,44,24,10,29.03,28.82,14,2,14,0.00
2012-5-15,95.4,74.8,61.0,33.0,25.5,16.1,26,17,11,28.94,28.82,21,7,21,0.00
2012-5-16,102.7,71.7,45.0,35.3,22.6,12.2,34,17,9,29.03,28.82,13,4,13,0.04
2012-5-17,99.5,76.6,59.4,34.9,24.9,14.4,19,15,10,28.85,28.64,24,9,24,0.39
2012-5-18,99.1,79.8,66.0,34.9,28.8,24.4,23,16,10,28.70,28.56,31,11,31,0.00
2012-5-19,94.5,76.2,59.9,49.6,31.5,23.9,64,22,11,28.76,28.56,29,9,29,0.31
2012-5-20,80.6,63.7,49.8,50.2,29.3,12.5,66,31,15,29.12,28.73,25,8,25,0.00
2012-5-21,96.3,67.7,43.5,33.7,26.0,14.4,49,25,11,29.15,28.94,11,2,11,0.00
2012-5-22,96.4,74.0,57.9,33.3,23.5,14.4,19,15,11,28.94,28.59,26,9,26,0.16
2012-5-23,98.8,79.2,64.8,51.4,28.5,16.8,53,17,10,28.59,28.26,35,10,35,0.08
2012-5-24,87.1,66.6,55.9,54.0,35.3,24.6,61,34,13,28.67,28.29,20,7,20,0.04
2012-5-25,88.9,66.1,54.1,46.8,33.7,24.1,54,33,13,28.85,28.67,24,6,24,0.00
2012-5-26,102.9,80.9,64.0,42.9,36.1,29.1,35,22,9,28.79,28.59,33,10,33,0.00
2012-5-27,104.0,84.2,71.4,41.3,34.2,24.4,30,18,9,28.67,28.47,30,12,30,0.00
2012-5-28,90.5,72.0,57.2,54.5,37.6,20.1,67,36,12,28.73,28.56,28,5,28,0.35
2012-5-29,84.2,67.6,54.9,35.2,24.9,14.6,44,21,13,28.91,28.73,17,6,17,0.00
2012-5-30,84.7,62.1,52.2,44.4,28.0,17.8,55,30,13,28.91,28.70,24,4,24,0.16
2012-5-31,62.6,54.4,44.8,40.0,27.8,18.4,56,37,24,28.94,28.79,17,7,17,0.00
2012-6-1,76.3,57.0,42.3,34.7,25.2,16.4,50,32,14,28.91,28.73,11,4,12,0.00
2012-6-2,93.4,65.5,50.0,35.1,30.4,26.9,51,32,11,28.76,28.70,20,6,20,0.00
2012-6-4,70.3,67.8,65.5,32.4,30.8,29.3,29,25,22,28.79,28.76,0,0,0,0.00
2012-6-5,104.7,78.6,59.2,42.7,33.6,27.3,44,23,9,28.85,28.73,11,2,11,0.00
2012-6-8,100.6,85.3,71.6,34.1,29.1,23.1,16,13,10,28.82,28.70,20,7,20,0.00
2012-6-9,102.7,80.9,64.4,35.1,28.6,20.9,24,15,9,28.73,28.50,29,9,29,0.00
2012-6-10,96.1,79.1,65.7,53.2,35.7,28.1,63,24,11,28.67,28.50,28,9,28,0.31
2012-6-11,88.7,71.4,59.2,52.7,33.9,15.8,68,32,13,28.94,28.64,23,6,23,0.00
2012-6-12,96.8,70.0,53.8,33.6,25.9,20.1,34,20,11,29.09,28.94,13,3,13,0.00
2012-6-13,97.9,74.9,61.7,34.5,28.0,22.3,28,19,11,29.00,28.70,25,9,25,0.00
2012-6-14,102.4,77.4,62.2,54.2,38.8,28.9,66,30,10,28.79,28.61,34,9,34,1.61
2012-6-15,75.0,67.1,62.2,55.7,46.4,31.7,66,50,24,28.82,28.73,17,4,17,0.71
2012-6-16,89.4,69.3,59.7,54.4,41.2,-19.9,63,40,2,28.88,28.79,13,2,13,0.47
2012-6-17,98.2,77.9,59.9,54.9,41.0,30.5,61,31,11,28.85,28.44,26,7,26,0.00
2012-6-18,103.3,86.5,75.0,40.3,36.3,31.0,28,18,9,28.44,28.38,26,10,26,0.00
2012-6-21,77.5,68.1,59.9,34.2,29.3,23.1,38,25,15,28.94,28.91,10,1,10,0.00
2012-6-22,103.1,75.5,55.9,44.2,34.5,26.1,52,27,9,28.97,28.76,17,4,17,0.00
2012-6-23,98.6,75.0,61.2,51.2,39.4,-19.3,58,31,2,28.88,28.67,41,9,41,0.20
2012-6-24,110.1,85.7,70.3,49.8,42.2,32.8,45,26,8,28.79,28.67,15,6,15,0.00
2012-6-25,102.9,83.0,73.4,48.1,42.6,32.8,40,26,10,28.85,28.79,19,8,19,0.00
2012-6-30,109.6,90.7,71.8,46.3,38.7,32.2,39,18,8,28.73,28.64,13,4,13,0.00
2012-7-1,106.9,85.2,71.2,48.4,37.9,31.1,37,21,9,28.79,28.70,17,4,17,0.00
2012-7-2,107.1,86.5,70.3,43.1,36.9,31.0,33,19,9,28.79,28.70,14,6,14,0.00
2012-7-3,108.3,87.5,73.9,41.7,36.5,31.0,25,18,8,28.73,28.64,16,6,16,0.00
2012-7-4,109.6,89.2,74.5,41.3,36.2,31.1,24,17,8,28.73,28.64,17,6,17,0.00
2012-7-5,113.9,90.6,75.6,41.1,36.2,31.0,24,16,7,28.79,28.70,15,5,15,0.00
2012-7-6,114.4,90.4,73.0,41.3,36.4,31.0,25,17,7,28.82,28.76,15,5,15,0.00
2012-7-7,98.1,81.9,72.1,48.8,38.3,-16.3,40,22,2,28.94,28.82,16,6,16,0.00
2012-7-8,91.4,79.5,70.3,40.4,34.8,28.2,25,20,12,29.00,28.91,14,7,14,0.00
2012-7-9,104.0,82.6,67.6,38.3,32.7,28.3,27,18,9,29.00,28.91,20,5,20,0.00
2012-7-10,104.4,79.8,62.1,36.7,31.9,23.4,36,19,9,29.03,28.94,15,5,15,0.00
2012-7-11,108.0,79.5,61.3,43.9,34.1,27.0,44,23,9,29.00,28.88,9,2,9,0.00
2012-7-12,109.0,82.2,64.4,46.7,37.3,29.1,45,24,8,28.91,28.79,10,2,10,0.00
2012-7-13,110.1,86.0,70.2,49.7,36.9,30.3,40,20,8,28.88,28.82,13,2,13,0.00
2012-7-14,115.7,86.7,66.6,46.2,36.5,30.3,43,20,7,28.91,28.82,15,3,15,0.00
2012-7-15,109.6,86.8,68.7,48.1,36.9,28.4,43,20,8,28.88,28.79,17,5,17,0.00
2012-7-16,110.8,86.1,68.0,40.8,34.3,30.0,26,17,8,28.82,28.67,16,6,16,0.00
2012-7-17,115.0,88.4,70.9,42.0,35.5,30.7,26,17,7,28.70,28.64,14,5,14,0.00
2012-7-18,113.0,89.4,71.2,41.2,35.7,25.8,32,16,7,28.76,28.67,13,4,13,0.00
2012-7-19,117.9,90.0,72.0,55.8,39.3,30.3,47,21,6,28.91,28.76,10,3,10,0.00
2012-7-20,115.2,87.6,71.1,44.4,37.4,30.3,36,20,7,28.97,28.88,13,5,13,0.00
2012-7-21,110.5,84.7,70.0,41.7,34.4,28.1,26,18,8,28.97,28.82,15,5,15,0.00
2012-7-22,115.5,89.3,71.2,39.3,33.7,27.3,26,15,7,28.91,28.79,22,6,22,0.00
2012-7-23,115.9,90.6,72.0,40.2,34.0,26.6,26,15,7,28.91,28.76,11,4,13,0.00
2012-7-24,116.1,92.4,76.6,37.4,34.6,30.0,22,14,7,28.79,28.61,19,6,19,0.00
2012-7-25,114.8,90.4,72.3,51.2,34.8,27.6,47,16,7,28.64,28.50,25,8,25,0.08
2012-7-26,109.0,85.7,71.6,60.8,39.1,27.0,65,24,8,28.79,28.64,17,5,17,0.00
2012-7-27,100.0,78.4,65.1,36.0,31.2,24.7,29,19,10,28.94,28.79,17,5,17,0.00
2012-7-28,103.6,80.1,64.8,39.0,33.2,27.0,35,20,9,29.00,28.82,22,8,22,0.00
2012-7-29,110.3,86.6,67.6,42.5,34.1,28.9,29,17,8,28.82,28.76,13,5,13,0.00
2012-7-30,114.4,85.6,73.0,50.2,38.1,18.5,42,21,7,28.85,28.76,13,3,13,0.00
2012-7-31,109.0,81.2,66.4,46.7,38.9,28.8,45,26,8,28.88,28.76,9,2,9,0.00
2012-8-1,114.6,87.0,69.3,42.9,35.5,28.1,33,18,7,28.82,28.67,15,4,15,0.00
2012-8-2,109.9,85.4,69.6,49.6,36.9,28.2,49,21,8,28.76,28.67,19,5,19,0.00
2012-8-3,112.3,87.6,71.1,43.3,35.4,28.4,34,17,7,28.76,28.61,15,4,15,0.00
2012-8-4,88.2,75.0,62.6,42.7,30.6,-17.8,32,20,10,28.94,28.64,35,7,35,0.00
2012-8-5,99.0,74.8,59.2,35.4,29.8,23.4,36,21,10,29.12,28.94,14,4,230,0.00
2012-8-6,110.1,81.9,61.0,36.6,30.7,24.4,28,18,8,29.03,28.82,17,5,17,0.00
2012-8-7,117.1,86.3,63.5,37.0,31.8,23.1,29,16,7,28.85,28.76,22,3,22,0.00
2012-8-8,115.0,81.4,67.1,52.2,36.8,19.8,51,24,7,28.85,28.70,38,3,38,0.35
2012-8-9,92.7,76.1,65.3,48.4,34.6,19.8,50,25,12,28.94,28.82,18,8,18,0.00
2012-8-10,97.0,72.3,58.3,33.8,29.1,20.7,39,22,11,29.00,28.91,13,4,13,0.00
2012-8-11,100.0,71.5,53.8,42.9,31.9,24.4,49,27,10,28.97,28.79,13,4,13,0.00
2012-8-12,92.1,73.2,63.9,43.8,33.0,27.0,45,24,12,28.82,28.73,22,7,22,0.00
2012-8-13,98.4,69.9,59.0,50.9,34.4,23.1,63,30,11,29.00,28.82,17,6,17,0.00
2012-8-14,97.5,73.3,54.1,40.9,32.0,26.3,47,25,11,28.91,28.73,17,5,17,0.00
2012-8-15,101.5,78.2,59.4,48.1,34.0,27.0,46,23,10,28.76,28.59,24,7,24,0.04
2012-8-16,81.3,69.2,56.1,48.8,27.3,14.9,43,22,14,28.97,28.70,21,9,21,0.00
2012-8-17,97.3,66.8,48.4,34.1,25.4,15.2,40,23,11,29.03,28.88,11,3,11,0.00
2012-8-18,82.6,59.2,48.0,47.2,28.2,-12.9,45,32,3,28.97,28.82,18,4,18,0.04
2012-8-19,91.6,66.5,48.7,42.2,30.6,20.9,65,31,12,28.97,28.85,14,3,14,0.00
2012-8-20,104.0,72.5,51.3,36.5,29.4,0.0,46,24,9,28.91,28.76,12,3,12,0.00
2012-8-21,110.3,78.3,57.4,36.6,30.1,0.0,35,19,8,28.91,28.82,13,4,13,0.00
2012-8-22,100.9,77.3,56.1,37.2,30.4,23.5,42,20,10,28.88,28.76,18,5,18,0.00
2012-8-23,95.7,79.7,65.5,34.0,29.1,21.0,24,16,11,28.82,28.70,25,7,25,0.00
2012-8-24,83.8,71.8,65.8,54.6,40.4,32.4,63,34,20,28.79,28.73,17,6,17,0.12
2012-8-25,73.0,69.0,66.4,57.0,51.5,40.8,66,54,39,28.79,28.70,14,5,14,0.08
2012-8-26,91.2,74.3,66.7,57.9,45.6,29.4,71,41,15,28.94,28.79,9,3,9,0.00
2012-8-27,106.9,78.3,61.0,62.0,39.3,-12.5,62,31,2,29.03,28.94,13,2,13,0.00
2012-8-28,106.2,81.0,65.5,39.8,33.9,24.9,37,21,9,29.00,28.79,17,6,17,0.00
2012-8-29,106.3,81.9,65.1,35.7,32.0,27.0,31,18,9,28.85,28.70,24,8,24,0.00
2012-8-30,111.2,83.7,66.6,36.2,32.3,24.4,31,17,7,28.82,28.73,19,6,19,0.00
2012-8-31,105.3,79.4,61.0,48.9,35.8,-16.5,46,24,2,28.88,28.79,13,3,13,0.00
2012-9-1,105.6,80.5,68.9,48.0,38.2,15.5,46,25,9,28.91,23.33,11,4,11,0.00
2012-9-2,108.9,79.5,60.6,42.1,34.9,28.1,44,23,8,28.85,23.36,13,4,13,0.00
2012-9-3,88.9,76.9,68.9,53.7,39.7,-17.7,42,28,2,28.82,28.70,13,4,13,0.00
2012-9-4,113.2,82.8,66.9,59.9,42.7,-15.3,63,32,2,28.76,28.61,14,4,14,0.00
2012-9-8,88.7,69.5,47.3,31.3,24.6,17.4,38,20,13,29.03,28.79,25,7,25,0.00
2012-9-9,88.0,64.5,50.0,31.0,22.9,14.4,32,21,13,29.12,28.94,15,4,15,0.00
2012-9-10,56.8,56.2,55.4,24.9,24.1,23.0,29,29,28,29.00,29.00,8,4,8,0.00
2012-9-12,55.6,55.2,54.9,46.4,45.7,44.2,72,70,66,29.15,29.06,13,7,13,0.63
2012-9-13,71.8,57.6,49.6,45.8,33.2,11.6,72,44,17,29.26,29.12,15,3,15,0.12
2012-9-14,89.4,62.8,44.6,39.9,26.5,-10.6,53,29,5,29.23,29.12,15,4,15,0.00
2012-9-15,88.5,61.6,43.7,34.8,25.8,21.3,48,29,13,29.15,28.97,15,3,15,0.00
2012-9-16,62.8,60.2,58.3,46.7,44.0,41.2,57,55,53,28.91,28.91,9,3,9,0.00
2012-9-22,66.9,53.0,38.1,17.6,12.5,5.0,35,20,15,29.15,29.06,16,6,16,0.00
2012-9-23,76.3,52.0,34.3,25.8,17.5,11.3,44,28,13,29.21,29.06,9,2,9,0.00
2012-9-24,79.0,58.4,42.8,28.0,22.6,17.4,38,26,14,29.06,28.70,14,3,14,0.00
2012-9-25,74.1,57.0,48.7,37.1,28.9,26.6,47,35,18,28.76,28.67,8,0,8,0.00
2012-9-30,83.5,68.3,49.1,31.0,26.1,19.4,40,22,14,28.88,28.76,6,1,6,0.00
2012-10-1,73.6,61.0,47.8,30.2,21.5,11.9,37,23,14,28.85,28.76,26,7,26,0.00
2012-10-2,80.8,56.7,39.9,28.6,17.7,11.1,34,23,14,28.88,28.73,9,2,9,0.00
2012-10-3,43.2,40.4,37.9,16.1,15.3,14.7,39,36,32,28.76,28.73,0,0,0,0.00
2012-10-6,50.4,43.4,32.2,9.7,5.9,0.2,31,21,19,29.23,29.12,22,6,22,0.00
2012-10-7,62.8,41.8,23.0,15.8,8.4,2.9,42,27,16,29.15,28.88,22,5,22,0.00
2012-10-8,74.7,54.5,38.8,25.5,15.7,9.4,34,23,13,28.88,28.64,24,7,24,0.00
2012-10-9,54.0,50.4,47.8,11.3,9.8,7.6,21,19,18,28.70,28.67,7,2,7,0.00
2012-10-13,75.2,65.6,55.6,54.5,40.8,-10.4,66,43,15,28.70,28.44,20,5,20,0.08
2012-10-14,67.3,57.5,46.2,52.4,26.0,11.3,67,33,15,28.85,28.47,30,9,30,0.24
2012-10-15,80.2,56.6,37.9,31.4,22.3,15.8,49,29,14,28.85,28.64,14,4,14,0.00
2012-10-16,57.9,57.6,57.2,25.6,25.2,24.7,29,28,28,28.64,28.61,12,7,12,0.00
2012-10-25,41.5,38.0,34.2,27.1,14.6,7.2,59,39,30,29.21,28.64,29,14,29,0.04
2012-10-26,46.9,37.1,28.9,9.9,7.6,3.5,42,29,20,29.35,29.18,20,7,20,0.00
2012-10-27,55.9,35.0,21.7,14.5,6.5,-12.4,43,31,17,29.26,29.12,11,2,11,0.00
2012-10-28,60.4,43.9,38.1,15.4,11.3,6.5,32,27,17,29.15,29.06,17,6,17,0.00
2012-10-29,65.3,48.6,40.3,17.1,12.0,6.5,30,23,15,29.09,28.94,23,9,23,0.00
2012-10-30,64.0,44.2,34.5,17.0,11.9,4.5,36,28,16,28.97,28.88,16,5,16,0.00
2012-10-31,68.0,43.8,27.9,18.7,12.8,7.2,42,30,15,28.94,28.82,11,1,11,0.00
2012-11-1,55.9,44.5,36.1,21.6,17.5,14.2,45,34,25,28.85,28.79,14,3,14,0.00
2012-11-3,58.3,44.9,30.4,17.4,12.9,9.8,42,28,17,29.06,29.00,10,2,10,0.00
2012-11-4,64.9,47.9,34.7,35.1,19.1,12.9,64,34,16,29.06,28.85,20,4,20,0.08
2012-11-5,46.4,42.2,40.1,34.9,25.1,20.3,64,51,42,29.00,28.88,25,7,25,0.00
2012-11-6,48.7,40.8,37.9,21.8,19.5,15.8,49,42,27,28.91,28.82,28,8,28,0.00
2012-11-8,43.3,41.9,40.5,17.2,16.3,15.6,37,35,33,28.73,28.73,5,1,5,0.00
2012-11-9,72.1,54.3,40.1,34.4,24.0,16.1,44,32,16,28.73,28.50,17,5,17,0.00
2012-11-10,80.2,65.5,44.2,39.1,31.5,24.6,60,30,15,28.56,28.35,35,13,35,0.20
2012-11-11,44.2,29.7,22.5,28.5,4.6,-6.0,62,35,22,29.03,28.56,27,6,27,0.00
2012-11-12,34.9,23.9,19.9,3.2,-1.1,-3.1,37,33,22,29.12,29.03,22,7,22,0.00
2012-11-18,61.2,57.2,50.7,16.4,13.7,11.3,24,18,16,28.94,28.88,19,9,19,0.00
2012-11-19,62.6,50.3,39.7,21.4,17.3,14.4,38,27,16,28.97,28.85,17,6,17,0.00
2012-11-20,71.2,47.2,32.0,22.9,15.1,7.4,48,29,14,29.09,28.97,9,4,9,0.00
2012-11-21,75.0,56.0,37.0,25.8,19.9,12.2,40,26,14,28.97,28.67,28,9,28,0.00
2012-11-22,61.9,52.5,43.5,26.2,18.7,12.5,43,27,17,29.06,28.61,30,10,30,0.00
2012-11-23,35.8,27.4,18.3,0.7,-4.7,-10.5,33,24,21,29.35,29.20,26,11,26,0.00
2012-11-24,48.0,33.3,17.6,8.3,1.5,-7.8,36,26,19,29.23,28.70,23,5,23,0.00
2012-11-25,43.5,38.3,33.6,10.0,7.7,3.5,35,28,21,29.00,28.73,11,6,11,0.00
2012-11-26,36.1,35.0,33.6,8.3,7.0,5.7,31,30,30,29.12,29.00,11,6,11,0.00
2012-11-27,46.9,30.7,10.9,8.5,2.5,-8.6,45,31,19,29.23,29.03,19,5,19,0.00
2012-11-28,53.6,36.6,18.3,14.8,7.8,1.0,48,31,18,29.21,28.94,13,4,13,0.00
2012-11-29,61.9,40.1,25.3,19.5,11.9,5.8,46,33,16,28.97,28.76,10,2,10,0.00
2012-11-30,51.1,36.6,30.2,17.4,11.2,8.8,41,35,24,28.94,28.79,17,4,17,0.00
2012-12-1,45.9,38.1,31.3,26.6,17.4,10.3,47,43,40,28.82,28.70,8,2,8,0.00
2012-12-9,28.2,20.7,15.3,0.4,-7.1,-13.5,34,28,24,28.97,28.82,30,16,30,0.00
2012-12-10,36.3,17.3,6.1,1.1,-12.8,-20.7,29,25,21,28.97,28.76,24,6,24,0.00
2012-12-11,48.4,31.6,15.3,7.9,-0.7,-13.5,36,25,19,28.88,28.79,19,6,19,0.00
2012-12-12,41.9,30.7,28.6,4.8,-2.4,-4.3,25,23,21,28.88,28.82,16,8,16,0.00
2012-12-15,47.1,41.0,34.9,36.0,21.2,13.1,66,46,37,28.59,28.32,20,8,20,0.00
2012-12-16,35.1,31.4,28.9,15.7,11.6,8.2,49,43,38,28.67,28.59,11,5,12,0.00
2012-12-17,32.7,29.0,24.4,16.4,10.8,7.6,51,46,39,28.67,28.47,13,4,13,0.00
2012-12-18,45.1,32.8,26.8,16.3,11.8,7.6,53,42,30,28.73,28.35,30,6,32,0.04
2012-12-19,37.6,32.2,27.5,26.8,18.5,9.9,79,57,41,28.76,28.59,19,5,19,0.04
2012-12-20,28.9,20.5,14.2,22.5,5.0,-2.8,77,51,43,29.09,28.64,26,5,26,0.00
2012-12-21,33.1,19.4,7.9,19.5,3.7,-8.6,57,50,45,29.18,29.03,8,2,8,0.00
2012-12-22,34.5,22.3,11.7,20.0,4.6,-4.7,55,46,34,29.03,28.76,12,3,12,0.00
2012-12-23,22.6,15.6,10.2,1.1,-3.2,-6.9,46,43,35,28.91,28.82,10,5,10,0.00
2012-12-24,19.6,14.4,8.6,-2.4,-6.2,-10.9,46,39,34,29.12,28.88,17,8,17,0.00
2012-12-25,12.9,8.1,2.5,-7.9,-12.2,-17.3,38,38,38,29.32,29.12,16,8,16,0.00
2012-12-26,24.1,10.1,2.5,-7.5,-12.3,-17.3,38,35,24,29.21,29.00,13,4,13,0.00
2012-12-27,28.0,20.0,7.2,4.8,-0.8,-14.2,44,39,34,29.03,28.82,13,4,13,0.00
2012-12-28,25.7,21.1,16.7,4.3,1.4,-2.4,47,42,34,28.97,28.85,14,6,14,0.00
2012-12-29,30.2,17.6,6.4,0.6,-3.9,-10.8,44,38,23,29.09,28.97,13,4,13,0.00
2012-12-30,46.6,23.8,10.8,10.4,2.0,-6.4,46,39,19,29.09,28.82,21,3,21,0.08
2012-12-31,24.8,21.4,16.0,2.5,0.0,-2.7,45,39,33,29.09,28.94,13,6,13,0.00
2013-1-1,29.1,15.0,5.2,-2.6,-7.6,-12.4,44,36,23,29.15,28.97,9,4,9,0.00